IBS1553 LEMD-GCTS
Flight info
| Callsign | IBS1553 |
|---|---|
| Flight time | N/A |
| Altitude | 29000 |
| Route | CCS DCT ELVAR DCT TROIA DCT BEXAL UN866 KONBA |
| Aircraft | A320/M-SDE3FGHIRWY/LB1 |
Departure
| Time | N/A |
|---|---|
| Airport | Adolfo Suárez Madrid–Barajas Airport (LEMD) |
Arrival
| Time | 2026-05-04 18:08 |
|---|---|
| Airport | Tenerife Sur Airport (GCTS) |
| Time | Latitude | Longitude | Altitude | Speed | Heading |
|---|---|---|---|---|---|
| 2026-05-04 17:19 | 31.69176 | -14.99793 | 35127 ft | 406 kts | 218° |
| 2026-05-04 17:20 | 31.64478 | -15.03449 | 35134 ft | 405 kts | 218° |
| 2026-05-04 17:20 | 31.57451 | -15.08915 | 35131 ft | 403 kts | 218° |
| 2026-05-04 17:21 | 31.48119 | -15.16194 | 35128 ft | 402 kts | 218° |
| 2026-05-04 17:22 | 31.43452 | -15.19815 | 35129 ft | 402 kts | 218° |
| 2026-05-04 17:23 | 31.34173 | -15.27001 | 35116 ft | 400 kts | 216° |
| 2026-05-04 17:24 | 31.26615 | -15.31308 | 35124 ft | 403 kts | 211° |
| 2026-05-04 17:25 | 31.16492 | -15.36901 | 35111 ft | 402 kts | 211° |
| 2026-05-04 17:26 | 31.06392 | -15.42479 | 35096 ft | 402 kts | 211° |
| 2026-05-04 17:27 | 30.93764 | -15.49442 | 35092 ft | 401 kts | 211° |
| 2026-05-04 17:28 | 30.83696 | -15.54970 | 35069 ft | 401 kts | 211° |
| 2026-05-04 17:29 | 30.68556 | -15.63268 | 35086 ft | 401 kts | 211° |
| 2026-05-04 17:31 | 30.55936 | -15.70160 | 35061 ft | 401 kts | 211° |
| 2026-05-04 17:32 | 30.44160 | -15.76567 | 35083 ft | 401 kts | 211° |
| 2026-05-04 17:33 | 30.34058 | -15.82051 | 35092 ft | 401 kts | 211° |
| 2026-05-04 17:34 | 30.23965 | -15.87535 | 35084 ft | 400 kts | 211° |
| 2026-05-04 17:35 | 30.11374 | -15.94341 | 35093 ft | 399 kts | 211° |
| 2026-05-04 17:36 | 30.06337 | -15.97052 | 35092 ft | 399 kts | 211° |
| 2026-05-04 17:36 | 30.01310 | -15.99765 | 35099 ft | 399 kts | 211° |
| 2026-05-04 17:37 | 29.96281 | -16.02470 | 35071 ft | 399 kts | 211° |
| 2026-05-04 17:37 | 29.91256 | -16.05169 | 35080 ft | 398 kts | 211° |
| 2026-05-04 17:38 | 29.86242 | -16.07857 | 35084 ft | 397 kts | 211° |
| 2026-05-04 17:38 | 29.81228 | -16.10535 | 35086 ft | 397 kts | 211° |
| 2026-05-04 17:39 | 29.73718 | -16.14554 | 35089 ft | 397 kts | 211° |
| 2026-05-04 17:39 | 29.68718 | -16.17233 | 35088 ft | 397 kts | 211° |
| 2026-05-04 17:40 | 29.63714 | -16.19911 | 35087 ft | 397 kts | 211° |
| 2026-05-04 17:40 | 29.58707 | -16.22584 | 35087 ft | 397 kts | 211° |
| 2026-05-04 17:41 | 29.53694 | -16.25252 | 35088 ft | 397 kts | 211° |
| 2026-05-04 17:41 | 29.48689 | -16.27915 | 35086 ft | 397 kts | 211° |
| 2026-05-04 17:42 | 29.43710 | -16.30570 | 35085 ft | 397 kts | 211° |
| 2026-05-04 17:42 | 29.38697 | -16.33240 | 35087 ft | 397 kts | 211° |
| 2026-05-04 17:43 | 29.33686 | -16.35891 | 35098 ft | 396 kts | 211° |
| 2026-05-04 17:43 | 29.28665 | -16.38547 | 34709 ft | 392 kts | 211° |
| 2026-05-04 17:44 | 29.26222 | -16.39843 | 33832 ft | 394 kts | 211° |
| 2026-05-04 17:44 | 29.23722 | -16.41173 | 32751 ft | 399 kts | 211° |
| 2026-05-04 17:44 | 29.21189 | -16.42521 | 31637 ft | 405 kts | 210° |
| 2026-05-04 17:44 | 29.18615 | -16.43887 | 30506 ft | 412 kts | 210° |
| 2026-05-04 17:45 | 29.15989 | -16.45277 | 29202 ft | 419 kts | 210° |
| 2026-05-04 17:45 | 29.13331 | -16.46679 | 27863 ft | 424 kts | 209° |
| 2026-05-04 17:45 | 29.10633 | -16.48101 | 26535 ft | 429 kts | 209° |
| 2026-05-04 17:45 | 29.07906 | -16.49537 | 25175 ft | 434 kts | 209° |
| 2026-05-04 17:46 | 29.05156 | -16.50988 | 23881 ft | 438 kts | 209° |
| 2026-05-04 17:46 | 29.02408 | -16.52436 | 22885 ft | 432 kts | 209° |
| 2026-05-04 17:46 | 28.99695 | -16.53863 | 21927 ft | 427 kts | 208° |
| 2026-05-04 17:46 | 28.97018 | -16.55271 | 21028 ft | 421 kts | 208° |
| 2026-05-04 17:47 | 28.94366 | -16.56666 | 20192 ft | 417 kts | 208° |
| 2026-05-04 17:47 | 28.91750 | -16.58041 | 19371 ft | 412 kts | 208° |
| 2026-05-04 17:47 | 28.89157 | -16.59403 | 18599 ft | 408 kts | 208° |
| 2026-05-04 17:47 | 28.86588 | -16.60753 | 17771 ft | 404 kts | 208° |
| 2026-05-04 17:48 | 28.84048 | -16.62087 | 16953 ft | 400 kts | 208° |
| 2026-05-04 17:48 | 28.81527 | -16.63410 | 16181 ft | 397 kts | 208° |
| 2026-05-04 17:48 | 28.79871 | -16.64277 | 15692 ft | 394 kts | 208° |
| 2026-05-04 17:48 | 28.76547 | -16.66021 | 15161 ft | 393 kts | 208° |
| 2026-05-04 17:49 | 28.74061 | -16.67328 | 15063 ft | 393 kts | 208° |
| 2026-05-04 17:49 | 28.71577 | -16.68634 | 15084 ft | 394 kts | 208° |
| 2026-05-04 17:49 | 28.69088 | -16.69942 | 15092 ft | 394 kts | 208° |
| 2026-05-04 17:49 | 28.66633 | -16.71230 | 15084 ft | 394 kts | 207° |
| 2026-05-04 17:50 | 28.64146 | -16.72532 | 15085 ft | 393 kts | 207° |
| 2026-05-04 17:50 | 28.61661 | -16.73829 | 15087 ft | 393 kts | 207° |
| 2026-05-04 17:50 | 28.59172 | -16.75127 | 15087 ft | 393 kts | 207° |
| 2026-05-04 17:50 | 28.56683 | -16.76424 | 15087 ft | 393 kts | 207° |
| 2026-05-04 17:51 | 28.54197 | -16.77717 | 15080 ft | 393 kts | 207° |
| 2026-05-04 17:51 | 28.51711 | -16.79010 | 15078 ft | 393 kts | 207° |
| 2026-05-04 17:51 | 28.49222 | -16.80304 | 15079 ft | 393 kts | 207° |
| 2026-05-04 17:51 | 28.46737 | -16.81597 | 15064 ft | 393 kts | 207° |
| 2026-05-04 17:52 | 28.44253 | -16.82890 | 15076 ft | 393 kts | 207° |
| 2026-05-04 17:52 | 28.41769 | -16.84183 | 15076 ft | 393 kts | 207° |
| 2026-05-04 17:52 | 28.39282 | -16.85478 | 15076 ft | 393 kts | 207° |
| 2026-05-04 17:52 | 28.36817 | -16.86757 | 15071 ft | 381 kts | 207° |
| 2026-05-04 17:53 | 28.34479 | -16.87965 | 15071 ft | 357 kts | 207° |
| 2026-05-04 17:53 | 28.32278 | -16.89102 | 15077 ft | 339 kts | 207° |
| 2026-05-04 17:53 | 28.30188 | -16.90185 | 15072 ft | 321 kts | 208° |
| 2026-05-04 17:53 | 28.28191 | -16.91183 | 15065 ft | 306 kts | 203° |
| 2026-05-04 17:54 | 28.26200 | -16.91870 | 15066 ft | 292 kts | 204° |
| 2026-05-04 17:54 | 28.24359 | -16.92750 | 15069 ft | 284 kts | 209° |
| 2026-05-04 17:54 | 28.22598 | -16.93754 | 15068 ft | 283 kts | 211° |
| 2026-05-04 17:54 | 28.20857 | -16.94787 | 15068 ft | 282 kts | 211° |
| 2026-05-04 17:55 | 28.19107 | -16.95795 | 15063 ft | 283 kts | 207° |
| 2026-05-04 17:55 | 28.17192 | -16.96331 | 14804 ft | 289 kts | 187° |
| 2026-05-04 17:55 | 28.15183 | -16.95939 | 14457 ft | 300 kts | 167° |
| 2026-05-04 17:55 | 28.13226 | -16.95106 | 14087 ft | 301 kts | 166° |
| 2026-05-04 17:56 | 28.11274 | -16.94251 | 13748 ft | 300 kts | 165° |
| 2026-05-04 17:56 | 28.09332 | -16.93392 | 13373 ft | 299 kts | 165° |
| 2026-05-04 17:56 | 28.07394 | -16.92536 | 12641 ft | 302 kts | 165° |
| 2026-05-04 17:56 | 28.05389 | -16.91663 | 11430 ft | 315 kts | 163° |
| 2026-05-04 17:57 | 28.03299 | -16.90760 | 10158 ft | 328 kts | 162° |
| 2026-05-04 17:57 | 28.01131 | -16.89822 | 8690 ft | 339 kts | 161° |
| 2026-05-04 17:57 | 27.98899 | -16.88854 | 7205 ft | 348 kts | 160° |
| 2026-05-04 17:57 | 27.96656 | -16.87877 | 6514 ft | 334 kts | 160° |
| 2026-05-04 17:58 | 27.94611 | -16.86981 | 6282 ft | 306 kts | 160° |
| 2026-05-04 17:58 | 27.92602 | -16.86105 | 5092 ft | 311 kts | 160° |
| 2026-05-04 17:58 | 27.90539 | -16.85235 | 3850 ft | 320 kts | 160° |
| 2026-05-04 17:58 | 27.88513 | -16.84414 | 3323 ft | 303 kts | 160° |
| 2026-05-04 17:59 | 27.86584 | -16.83751 | 3125 ft | 277 kts | 171° |
| 2026-05-04 17:59 | 27.84778 | -16.83922 | 3002 ft | 250 kts | 202° |
| 2026-05-04 17:59 | 27.82927 | -16.86590 | 3000 ft | 218 kts | 272° |
| 2026-05-04 18:00 | 27.83286 | -16.88200 | 3006 ft | 212 kts | 306° |
| 2026-05-04 18:00 | 27.84354 | -16.89288 | 3014 ft | 208 kts | 332° |
| 2026-05-04 18:00 | 27.85628 | -16.90064 | 3012 ft | 208 kts | 335° |
| 2026-05-04 18:00 | 27.86930 | -16.90788 | 3009 ft | 209 kts | 335° |
| 2026-05-04 18:01 | 27.88239 | -16.91500 | 3008 ft | 209 kts | 336° |
| 2026-05-04 18:01 | 27.89565 | -16.92197 | 3010 ft | 210 kts | 339° |
| 2026-05-04 18:01 | 27.90990 | -16.92414 | 3010 ft | 210 kts | 12° |
| 2026-05-04 18:02 | 27.92960 | -16.90168 | 3008 ft | 215 kts | 68° |
| 2026-05-04 18:02 | 27.93498 | -16.88589 | 3007 ft | 215 kts | 68° |
| 2026-05-04 18:02 | 27.94043 | -16.87010 | 3009 ft | 215 kts | 67° |
| 2026-05-04 18:02 | 27.94594 | -16.85436 | 3007 ft | 215 kts | 67° |
| 2026-05-04 18:03 | 27.95141 | -16.83875 | 3009 ft | 208 kts | 67° |
| 2026-05-04 18:03 | 27.95661 | -16.82392 | 3003 ft | 199 kts | 67° |
| 2026-05-04 18:03 | 27.96167 | -16.80949 | 3005 ft | 196 kts | 67° |
| 2026-05-04 18:03 | 27.96669 | -16.79517 | 3007 ft | 195 kts | 67° |
| 2026-05-04 18:04 | 27.97170 | -16.78089 | 3012 ft | 195 kts | 67° |
| 2026-05-04 18:04 | 27.97668 | -16.76666 | 3008 ft | 195 kts | 67° |
| 2026-05-04 18:04 | 27.98666 | -16.73816 | 2904 ft | 195 kts | 67° |
| 2026-05-04 18:05 | 27.99165 | -16.72388 | 2691 ft | 195 kts | 67° |
| 2026-05-04 18:05 | 27.99662 | -16.70967 | 2453 ft | 194 kts | 67° |
| 2026-05-04 18:05 | 28.00148 | -16.69576 | 2221 ft | 185 kts | 65° |
| 2026-05-04 18:05 | 28.00609 | -16.68253 | 1955 ft | 177 kts | 64° |
| 2026-05-04 18:06 | 28.01440 | -16.65871 | 1519 ft | 146 kts | 64° |
| 2026-05-04 18:06 | 28.01796 | -16.64843 | 1274 ft | 135 kts | 68° |
| 2026-05-04 18:06 | 28.02124 | -16.63872 | 1139 ft | 131 kts | 66° |
| 2026-05-04 18:07 | 28.02449 | -16.62927 | 992 ft | 129 kts | 69° |
| 2026-05-04 18:07 | 28.02783 | -16.61989 | 824 ft | 129 kts | 68° |
| 2026-05-04 18:07 | 28.03130 | -16.61063 | 648 ft | 127 kts | 76° |
| 2026-05-04 18:07 | 28.03446 | -16.60131 | 514 ft | 128 kts | 73° |
| 2026-05-04 18:08 | 28.03759 | -16.59220 | 322 ft | 125 kts | 72° |
| 2026-05-04 18:08 | 28.04076 | -16.58313 | 211 ft | 119 kts | 70° |
| 2026-05-04 18:08 | 28.04337 | -16.57566 | 193 ft | 79 kts | 68° |
| 2026-05-04 18:08 | 28.04476 | -16.57166 | 198 ft | 30 kts | 67° |
| 2026-05-04 18:09 | 28.04665 | -16.56865 | 212 ft | 20 kts | 51° |
| 2026-05-04 18:09 | 28.04755 | -16.56807 | 219 ft | 10 kts | 336° |
| 2026-05-04 18:10 | 28.04775 | -16.56860 | 219 ft | 9 kts | 264° |
| 2026-05-04 18:10 | 28.04756 | -16.56920 | 222 ft | 7 kts | 247° |
| 2026-05-04 18:10 | 28.04731 | -16.56990 | 222 ft | 15 kts | 248° |
| 2026-05-04 18:10 | 28.04687 | -16.57115 | 223 ft | 16 kts | 243° |
| 2026-05-04 18:11 | 28.04638 | -16.57226 | 223 ft | 13 kts | 249° |
| 2026-05-04 18:11 | 28.04670 | -16.57260 | 223 ft | 7 kts | 343° |
| 2026-05-04 18:11 | 28.04695 | -16.57271 | 223 ft | 0 kts | 339° |